sensor_id;sensor_type;location;lat;lon;timestamp;P1;durP1;ratioP1;P2;durP2;ratioP2
4186;SDS011;2107;52.306;10.484;2022-08-19T00:00:08;0.50;;;0.50;;
4186;SDS011;2107;52.306;10.484;2022-08-19T00:02:39;0.30;;;0.30;;
4186;SDS011;2107;52.306;10.484;2022-08-19T00:05:07;0.30;;;0.30;;
4186;SDS011;2107;52.306;10.484;2022-08-19T00:07:35;0.30;;;0.30;;
4186;SDS011;2107;52.306;10.484;2022-08-19T00:10:02;0.40;;;0.40;;
4186;SDS011;2107;52.306;10.484;2022-08-19T00:12:32;0.30;;;0.30;;
4186;SDS011;2107;52.306;10.484;2022-08-19T00:14:59;0.20;;;0.20;;
4186;SDS011;2107;52.306;10.484;2022-08-19T00:17:26;0.20;;;0.20;;
4186;SDS011;2107;52.306;10.484;2022-08-19T00:19:53;0.20;;;0.20;;
4186;SDS011;2107;52.306;10.484;2022-08-19T00:22:20;0.30;;;0.30;;
4186;SDS011;2107;52.306;10.484;2022-08-19T00:24:47;0.30;;;0.30;;
4186;SDS011;2107;52.306;10.484;2022-08-19T00:27:14;0.30;;;0.30;;
4186;SDS011;2107;52.306;10.484;2022-08-19T00:29:42;0.30;;;0.30;;
4186;SDS011;2107;52.306;10.484;2022-08-19T00:32:09;0.30;;;0.30;;
4186;SDS011;2107;52.306;10.484;2022-08-19T00:34:37;0.30;;;0.30;;
4186;SDS011;2107;52.306;10.484;2022-08-19T00:37:04;0.30;;;0.30;;
4186;SDS011;2107;52.306;10.484;2022-08-19T00:39:31;0.30;;;0.30;;
4186;SDS011;2107;52.306;10.484;2022-08-19T00:41:58;0.40;;;0.40;;
4186;SDS011;2107;52.306;10.484;2022-08-19T00:44:25;0.30;;;0.30;;
4186;SDS011;2107;52.306;10.484;2022-08-19T00:46:56;0.30;;;0.30;;
4186;SDS011;2107;52.306;10.484;2022-08-19T00:49:25;0.30;;;0.30;;
4186;SDS011;2107;52.306;10.484;2022-08-19T00:51:57;0.20;;;0.20;;
4186;SDS011;2107;52.306;10.484;2022-08-19T00:54:26;0.20;;;0.20;;
4186;SDS011;2107;52.306;10.484;2022-08-19T00:56:55;0.30;;;0.30;;
4186;SDS011;2107;52.306;10.484;2022-08-19T00:59:22;0.40;;;0.40;;
4186;SDS011;2107;52.306;10.484;2022-08-19T01:01:49;0.40;;;0.40;;
4186;SDS011;2107;52.306;10.484;2022-08-19T01:04:17;0.40;;;0.40;;
4186;SDS011;2107;52.306;10.484;2022-08-19T01:06:44;0.40;;;0.40;;
4186;SDS011;2107;52.306;10.484;2022-08-19T01:09:11;0.40;;;0.40;;
4186;SDS011;2107;52.306;10.484;2022-08-19T01:11:39;0.50;;;0.50;;
4186;SDS011;2107;52.306;10.484;2022-08-19T01:14:09;0.40;;;0.40;;
4186;SDS011;2107;52.306;10.484;2022-08-19T01:16:36;0.30;;;0.30;;
4186;SDS011;2107;52.306;10.484;2022-08-19T01:19:08;0.40;;;0.40;;
4186;SDS011;2107;52.306;10.484;2022-08-19T01:21:41;0.20;;;0.20;;
4186;SDS011;2107;52.306;10.484;2022-08-19T01:24:14;0.40;;;0.40;;
4186;SDS011;2107;52.306;10.484;2022-08-19T01:26:41;0.30;;;0.30;;
4186;SDS011;2107;52.306;10.484;2022-08-19T01:29:11;0.40;;;0.40;;
4186;SDS011;2107;52.306;10.484;2022-08-19T01:31:39;0.40;;;0.40;;
4186;SDS011;2107;52.306;10.484;2022-08-19T01:34:06;0.47;;;0.47;;
4186;SDS011;2107;52.306;10.484;2022-08-19T01:36:34;0.40;;;0.40;;
4186;SDS011;2107;52.306;10.484;2022-08-19T01:39:04;0.20;;;0.20;;
4186;SDS011;2107;52.306;10.484;2022-08-19T01:41:35;0.30;;;0.30;;
4186;SDS011;2107;52.306;10.484;2022-08-19T01:44:03;0.30;;;0.30;;
4186;SDS011;2107;52.306;10.484;2022-08-19T01:46:31;0.30;;;0.30;;
4186;SDS011;2107;52.306;10.484;2022-08-19T01:48:58;0.20;;;0.20;;
4186;SDS011;2107;52.306;10.484;2022-08-19T01:51:25;0.30;;;0.30;;
4186;SDS011;2107;52.306;10.484;2022-08-19T01:53:53;0.30;;;0.30;;
4186;SDS011;2107;52.306;10.484;2022-08-19T01:56:20;0.10;;;0.10;;
4186;SDS011;2107;52.306;10.484;2022-08-19T01:58:49;0.20;;;0.20;;
4186;SDS011;2107;52.306;10.484;2022-08-19T02:01:20;0.20;;;0.20;;
4186;SDS011;2107;52.306;10.484;2022-08-19T02:03:47;0.30;;;0.30;;
4186;SDS011;2107;52.306;10.484;2022-08-19T02:06:14;0.20;;;0.20;;
4186;SDS011;2107;52.306;10.484;2022-08-19T02:08:42;0.20;;;0.20;;
4186;SDS011;2107;52.306;10.484;2022-08-19T02:11:17;0.27;;;0.27;;
4186;SDS011;2107;52.306;10.484;2022-08-19T02:13:46;0.20;;;0.20;;
4186;SDS011;2107;52.306;10.484;2022-08-19T02:16:16;0.20;;;0.20;;
4186;SDS011;2107;52.306;10.484;2022-08-19T02:18:43;0.20;;;0.20;;
4186;SDS011;2107;52.306;10.484;2022-08-19T02:21:10;0.20;;;0.20;;
4186;SDS011;2107;52.306;10.484;2022-08-19T02:23:38;0.20;;;0.20;;
4186;SDS011;2107;52.306;10.484;2022-08-19T02:26:05;0.20;;;0.20;;
4186;SDS011;2107;52.306;10.484;2022-08-19T02:28:32;0.20;;;0.20;;
4186;SDS011;2107;52.306;10.484;2022-08-19T02:31:00;0.20;;;0.20;;
4186;SDS011;2107;52.306;10.484;2022-08-19T02:33:28;0.20;;;0.20;;
4186;SDS011;2107;52.306;10.484;2022-08-19T02:35:55;0.20;;;0.20;;
4186;SDS011;2107;52.306;10.484;2022-08-19T02:38:21;0.30;;;0.30;;
4186;SDS011;2107;52.306;10.484;2022-08-19T02:40:51;0.20;;;0.20;;
4186;SDS011;2107;52.306;10.484;2022-08-19T02:43:19;0.20;;;0.20;;
4186;SDS011;2107;52.306;10.484;2022-08-19T02:45:47;0.20;;;0.20;;
4186;SDS011;2107;52.306;10.484;2022-08-19T02:48:16;0.20;;;0.20;;
4186;SDS011;2107;52.306;10.484;2022-08-19T02:50:44;0.20;;;0.20;;
4186;SDS011;2107;52.306;10.484;2022-08-19T02:53:11;0.20;;;0.20;;
4186;SDS011;2107;52.306;10.484;2022-08-19T02:55:42;0.20;;;0.20;;
4186;SDS011;2107;52.306;10.484;2022-08-19T02:58:10;0.10;;;0.10;;
4186;SDS011;2107;52.306;10.484;2022-08-19T03:00:40;0.20;;;0.20;;
4186;SDS011;2107;52.306;10.484;2022-08-19T03:03:09;0.20;;;0.20;;
4186;SDS011;2107;52.306;10.484;2022-08-19T03:05:37;0.10;;;0.10;;
4186;SDS011;2107;52.306;10.484;2022-08-19T03:08:05;0.10;;;0.10;;
4186;SDS011;2107;52.306;10.484;2022-08-19T03:10:39;0.20;;;0.20;;
4186;SDS011;2107;52.306;10.484;2022-08-19T03:13:09;0.10;;;0.10;;
4186;SDS011;2107;52.306;10.484;2022-08-19T03:15:38;0.10;;;0.10;;
4186;SDS011;2107;52.306;10.484;2022-08-19T03:18:06;0.10;;;0.10;;
4186;SDS011;2107;52.306;10.484;2022-08-19T03:20:33;0.10;;;0.10;;
4186;SDS011;2107;52.306;10.484;2022-08-19T03:23:06;0.10;;;0.10;;
4186;SDS011;2107;52.306;10.484;2022-08-19T03:25:36;0.10;;;0.10;;
4186;SDS011;2107;52.306;10.484;2022-08-19T03:28:05;0.10;;;0.10;;
4186;SDS011;2107;52.306;10.484;2022-08-19T03:30:32;0.10;;;0.10;;
4186;SDS011;2107;52.306;10.484;2022-08-19T03:32:59;0.10;;;0.10;;
4186;SDS011;2107;52.306;10.484;2022-08-19T03:35:26;0.10;;;0.10;;
4186;SDS011;2107;52.306;10.484;2022-08-19T03:37:53;0.10;;;0.10;;
4186;SDS011;2107;52.306;10.484;2022-08-19T03:40:22;0.20;;;0.20;;
4186;SDS011;2107;52.306;10.484;2022-08-19T03:42:50;0.10;;;0.10;;
4186;SDS011;2107;52.306;10.484;2022-08-19T03:45:17;0.10;;;0.10;;
4186;SDS011;2107;52.306;10.484;2022-08-19T03:47:44;0.10;;;0.10;;
4186;SDS011;2107;52.306;10.484;2022-08-19T03:50:11;0.10;;;0.10;;
4186;SDS011;2107;52.306;10.484;2022-08-19T03:52:38;0.20;;;0.20;;
4186;SDS011;2107;52.306;10.484;2022-08-19T03:55:06;0.10;;;0.10;;
4186;SDS011;2107;52.306;10.484;2022-08-19T03:57:35;0.10;;;0.10;;
4186;SDS011;2107;52.306;10.484;2022-08-19T04:00:02;0.10;;;0.10;;
4186;SDS011;2107;52.306;10.484;2022-08-19T04:02:31;0.10;;;0.10;;
4186;SDS011;2107;52.306;10.484;2022-08-19T04:04:58;0.10;;;0.10;;
4186;SDS011;2107;52.306;10.484;2022-08-19T04:07:25;0.10;;;0.10;;
4186;SDS011;2107;52.306;10.484;2022-08-19T04:09:52;0.20;;;0.20;;
4186;SDS011;2107;52.306;10.484;2022-08-19T04:12:19;0.10;;;0.10;;
4186;SDS011;2107;52.306;10.484;2022-08-19T04:14:47;0.10;;;0.10;;
4186;SDS011;2107;52.306;10.484;2022-08-19T04:17:14;0.10;;;0.10;;
4186;SDS011;2107;52.306;10.484;2022-08-19T04:19:41;0.00;;;0.00;;
4186;SDS011;2107;52.306;10.484;2022-08-19T04:22:09;0.10;;;0.10;;
4186;SDS011;2107;52.306;10.484;2022-08-19T04:24:37;0.10;;;0.10;;
4186;SDS011;2107;52.306;10.484;2022-08-19T04:27:04;0.10;;;0.10;;
4186;SDS011;2107;52.306;10.484;2022-08-19T04:29:31;0.10;;;0.10;;
4186;SDS011;2107;52.306;10.484;2022-08-19T04:32:00;0.10;;;0.10;;
4186;SDS011;2107;52.306;10.484;2022-08-19T04:34:28;0.10;;;0.10;;
4186;SDS011;2107;52.306;10.484;2022-08-19T04:36:56;0.10;;;0.10;;
4186;SDS011;2107;52.306;10.484;2022-08-19T04:39:24;0.10;;;0.10;;
4186;SDS011;2107;52.306;10.484;2022-08-19T04:42:13;0.10;;;0.10;;
4186;SDS011;2107;52.306;10.484;2022-08-19T04:44:57;0.10;;;0.10;;
4186;SDS011;2107;52.306;10.484;2022-08-19T04:47:26;0.10;;;0.10;;
4186;SDS011;2107;52.306;10.484;2022-08-19T04:49:53;0.10;;;0.10;;
4186;SDS011;2107;52.306;10.484;2022-08-19T04:52:19;0.10;;;0.10;;
4186;SDS011;2107;52.306;10.484;2022-08-19T04:54:46;0.20;;;0.20;;
4186;SDS011;2107;52.306;10.484;2022-08-19T04:57:13;0.20;;;0.20;;
4186;SDS011;2107;52.306;10.484;2022-08-19T04:59:40;0.20;;;0.20;;
4186;SDS011;2107;52.306;10.484;2022-08-19T05:02:08;0.20;;;0.20;;
4186;SDS011;2107;52.306;10.484;2022-08-19T05:04:37;0.20;;;0.20;;
4186;SDS011;2107;52.306;10.484;2022-08-19T05:07:04;0.20;;;0.20;;
4186;SDS011;2107;52.306;10.484;2022-08-19T05:09:31;0.20;;;0.20;;
4186;SDS011;2107;52.306;10.484;2022-08-19T05:11:58;0.20;;;0.20;;
4186;SDS011;2107;52.306;10.484;2022-08-19T05:14:25;0.10;;;0.10;;
4186;SDS011;2107;52.306;10.484;2022-08-19T05:16:53;0.10;;;0.10;;
4186;SDS011;2107;52.306;10.484;2022-08-19T05:19:20;0.20;;;0.20;;
4186;SDS011;2107;52.306;10.484;2022-08-19T05:22:06;0.10;;;0.10;;
4186;SDS011;2107;52.306;10.484;2022-08-19T05:24:50;0.10;;;0.10;;
4186;SDS011;2107;52.306;10.484;2022-08-19T05:27:17;0.10;;;0.10;;
4186;SDS011;2107;52.306;10.484;2022-08-19T05:29:44;0.10;;;0.10;;
4186;SDS011;2107;52.306;10.484;2022-08-19T05:32:11;0.10;;;0.10;;
4186;SDS011;2107;52.306;10.484;2022-08-19T05:34:38;0.10;;;0.10;;
4186;SDS011;2107;52.306;10.484;2022-08-19T05:37:07;0.00;;;0.00;;
4186;SDS011;2107;52.306;10.484;2022-08-19T05:39:35;0.10;;;0.10;;
4186;SDS011;2107;52.306;10.484;2022-08-19T05:42:04;0.10;;;0.10;;
4186;SDS011;2107;52.306;10.484;2022-08-19T05:44:34;0.10;;;0.10;;
4186;SDS011;2107;52.306;10.484;2022-08-19T05:47:04;0.10;;;0.10;;
4186;SDS011;2107;52.306;10.484;2022-08-19T05:49:33;0.10;;;0.10;;
4186;SDS011;2107;52.306;10.484;2022-08-19T05:52:02;0.10;;;0.10;;
4186;SDS011;2107;52.306;10.484;2022-08-19T05:54:31;0.10;;;0.10;;
4186;SDS011;2107;52.306;10.484;2022-08-19T05:57:00;0.20;;;0.20;;
4186;SDS011;2107;52.306;10.484;2022-08-19T05:59:27;0.20;;;0.20;;
4186;SDS011;2107;52.306;10.484;2022-08-19T06:01:54;0.20;;;0.20;;
4186;SDS011;2107;52.306;10.484;2022-08-19T06:04:22;0.20;;;0.20;;
4186;SDS011;2107;52.306;10.484;2022-08-19T06:06:51;0.20;;;0.20;;
4186;SDS011;2107;52.306;10.484;2022-08-19T06:09:19;0.40;;;0.40;;
4186;SDS011;2107;52.306;10.484;2022-08-19T06:11:48;0.50;;;0.50;;
4186;SDS011;2107;52.306;10.484;2022-08-19T06:14:19;0.40;;;0.40;;
4186;SDS011;2107;52.306;10.484;2022-08-19T06:16:49;0.40;;;0.40;;
4186;SDS011;2107;52.306;10.484;2022-08-19T06:19:18;0.50;;;0.50;;
4186;SDS011;2107;52.306;10.484;2022-08-19T06:21:47;0.40;;;0.40;;
4186;SDS011;2107;52.306;10.484;2022-08-19T06:24:17;0.47;;;0.47;;
4186;SDS011;2107;52.306;10.484;2022-08-19T06:26:46;0.50;;;0.50;;
4186;SDS011;2107;52.306;10.484;2022-08-19T06:29:16;0.60;;;0.60;;
4186;SDS011;2107;52.306;10.484;2022-08-19T06:31:45;0.50;;;0.50;;
4186;SDS011;2107;52.306;10.484;2022-08-19T06:34:15;0.50;;;0.50;;
4186;SDS011;2107;52.306;10.484;2022-08-19T06:36:44;0.60;;;0.60;;
4186;SDS011;2107;52.306;10.484;2022-08-19T06:39:14;0.70;;;0.70;;
4186;SDS011;2107;52.306;10.484;2022-08-19T06:41:44;0.60;;;0.60;;
4186;SDS011;2107;52.306;10.484;2022-08-19T06:44:14;0.70;;;0.70;;
4186;SDS011;2107;52.306;10.484;2022-08-19T06:46:41;0.60;;;0.60;;
4186;SDS011;2107;52.306;10.484;2022-08-19T06:49:09;0.70;;;0.70;;
4186;SDS011;2107;52.306;10.484;2022-08-19T06:51:39;0.57;;;0.57;;
4186;SDS011;2107;52.306;10.484;2022-08-19T06:54:07;0.80;;;0.80;;
4186;SDS011;2107;52.306;10.484;2022-08-19T06:56:34;0.50;;;0.50;;
4186;SDS011;2107;52.306;10.484;2022-08-19T06:59:01;0.50;;;0.50;;
4186;SDS011;2107;52.306;10.484;2022-08-19T07:01:31;0.57;;;0.57;;
4186;SDS011;2107;52.306;10.484;2022-08-19T07:04:03;0.60;;;0.60;;
4186;SDS011;2107;52.306;10.484;2022-08-19T07:06:30;0.70;;;0.70;;
4186;SDS011;2107;52.306;10.484;2022-08-19T07:08:57;0.50;;;0.50;;
4186;SDS011;2107;52.306;10.484;2022-08-19T07:11:24;0.70;;;0.70;;
4186;SDS011;2107;52.306;10.484;2022-08-19T07:13:52;0.50;;;0.50;;
4186;SDS011;2107;52.306;10.484;2022-08-19T07:16:20;0.60;;;0.60;;
4186;SDS011;2107;52.306;10.484;2022-08-19T07:18:51;0.40;;;0.40;;
4186;SDS011;2107;52.306;10.484;2022-08-19T07:21:20;0.60;;;0.60;;
4186;SDS011;2107;52.306;10.484;2022-08-19T07:23:49;0.50;;;0.50;;
4186;SDS011;2107;52.306;10.484;2022-08-19T07:26:18;0.60;;;0.60;;
4186;SDS011;2107;52.306;10.484;2022-08-19T07:28:48;0.50;;;0.50;;
4186;SDS011;2107;52.306;10.484;2022-08-19T07:31:16;0.60;;;0.60;;
4186;SDS011;2107;52.306;10.484;2022-08-19T07:33:45;0.50;;;0.50;;
4186;SDS011;2107;52.306;10.484;2022-08-19T07:36:15;0.40;;;0.40;;
4186;SDS011;2107;52.306;10.484;2022-08-19T07:38:44;0.60;;;0.60;;
4186;SDS011;2107;52.306;10.484;2022-08-19T07:41:14;0.60;;;0.60;;
4186;SDS011;2107;52.306;10.484;2022-08-19T07:43:42;0.50;;;0.50;;
4186;SDS011;2107;52.306;10.484;2022-08-19T07:46:09;0.60;;;0.60;;
4186;SDS011;2107;52.306;10.484;2022-08-19T07:48:37;0.60;;;0.60;;
4186;SDS011;2107;52.306;10.484;2022-08-19T07:51:05;0.73;;;0.73;;
4186;SDS011;2107;52.306;10.484;2022-08-19T07:53:35;0.80;;;0.80;;
4186;SDS011;2107;52.306;10.484;2022-08-19T07:56:04;0.70;;;0.70;;
4186;SDS011;2107;52.306;10.484;2022-08-19T07:58:33;0.70;;;0.70;;
4186;SDS011;2107;52.306;10.484;2022-08-19T08:01:03;0.60;;;0.60;;
4186;SDS011;2107;52.306;10.484;2022-08-19T08:03:32;0.60;;;0.60;;
4186;SDS011;2107;52.306;10.484;2022-08-19T08:06:16;0.60;;;0.60;;
4186;SDS011;2107;52.306;10.484;2022-08-19T08:09:03;0.50;;;0.50;;
4186;SDS011;2107;52.306;10.484;2022-08-19T08:11:47;1.00;;;1.00;;
4186;SDS011;2107;52.306;10.484;2022-08-19T08:14:16;0.80;;;0.80;;
4186;SDS011;2107;52.306;10.484;2022-08-19T08:16:44;1.07;;;1.07;;
4186;SDS011;2107;52.306;10.484;2022-08-19T08:19:12;1.00;;;1.00;;
4186;SDS011;2107;52.306;10.484;2022-08-19T08:21:40;0.70;;;0.70;;
4186;SDS011;2107;52.306;10.484;2022-08-19T08:24:10;0.73;;;0.73;;
4186;SDS011;2107;52.306;10.484;2022-08-19T08:26:37;0.77;;;0.77;;
4186;SDS011;2107;52.306;10.484;2022-08-19T08:29:05;0.90;;;0.90;;
4186;SDS011;2107;52.306;10.484;2022-08-19T08:31:37;0.70;;;0.70;;
4186;SDS011;2107;52.306;10.484;2022-08-19T08:34:05;0.70;;;0.70;;
4186;SDS011;2107;52.306;10.484;2022-08-19T08:36:32;0.90;;;0.90;;
4186;SDS011;2107;52.306;10.484;2022-08-19T08:39:03;0.80;;;0.80;;
4186;SDS011;2107;52.306;10.484;2022-08-19T08:41:34;0.60;;;0.60;;
4186;SDS011;2107;52.306;10.484;2022-08-19T08:44:06;0.80;;;0.80;;
4186;SDS011;2107;52.306;10.484;2022-08-19T08:46:42;0.77;;;0.77;;
4186;SDS011;2107;52.306;10.484;2022-08-19T08:49:16;0.70;;;0.70;;
4186;SDS011;2107;52.306;10.484;2022-08-19T08:51:52;0.70;;;0.70;;
4186;SDS011;2107;52.306;10.484;2022-08-19T08:54:27;0.40;;;0.40;;
4186;SDS011;2107;52.306;10.484;2022-08-19T08:56:59;0.40;;;0.40;;
4186;SDS011;2107;52.306;10.484;2022-08-19T08:59:29;0.20;;;0.20;;
4186;SDS011;2107;52.306;10.484;2022-08-19T09:01:59;0.40;;;0.40;;
4186;SDS011;2107;52.306;10.484;2022-08-19T09:04:27;0.43;;;0.43;;
4186;SDS011;2107;52.306;10.484;2022-08-19T09:06:56;0.40;;;0.40;;
4186;SDS011;2107;52.306;10.484;2022-08-19T09:09:34;0.50;;;0.50;;
4186;SDS011;2107;52.306;10.484;2022-08-19T09:12:07;0.40;;;0.40;;
4186;SDS011;2107;52.306;10.484;2022-08-19T09:14:45;0.50;;;0.50;;
4186;SDS011;2107;52.306;10.484;2022-08-19T09:17:16;0.47;;;0.47;;
4186;SDS011;2107;52.306;10.484;2022-08-19T09:19:49;0.50;;;0.50;;
4186;SDS011;2107;52.306;10.484;2022-08-19T09:22:17;0.40;;;0.40;;
4186;SDS011;2107;52.306;10.484;2022-08-19T09:24:47;0.50;;;0.50;;
4186;SDS011;2107;52.306;10.484;2022-08-19T09:27:21;0.40;;;0.40;;
4186;SDS011;2107;52.306;10.484;2022-08-19T09:29:50;0.50;;;0.50;;
4186;SDS011;2107;52.306;10.484;2022-08-19T09:32:18;0.60;;;0.60;;
4186;SDS011;2107;52.306;10.484;2022-08-19T09:34:46;0.53;;;0.53;;
4186;SDS011;2107;52.306;10.484;2022-08-19T09:37:13;0.50;;;0.50;;
4186;SDS011;2107;52.306;10.484;2022-08-19T09:39:40;0.40;;;0.40;;
4186;SDS011;2107;52.306;10.484;2022-08-19T09:42:07;0.40;;;0.40;;
4186;SDS011;2107;52.306;10.484;2022-08-19T09:44:38;0.40;;;0.40;;
4186;SDS011;2107;52.306;10.484;2022-08-19T09:47:06;0.50;;;0.50;;
4186;SDS011;2107;52.306;10.484;2022-08-19T09:49:33;0.60;;;0.60;;
4186;SDS011;2107;52.306;10.484;2022-08-19T09:52:00;0.80;;;0.80;;
4186;SDS011;2107;52.306;10.484;2022-08-19T09:54:28;0.50;;;0.50;;
4186;SDS011;2107;52.306;10.484;2022-08-19T09:56:55;0.60;;;0.60;;
4186;SDS011;2107;52.306;10.484;2022-08-19T09:59:25;0.30;;;0.30;;
4186;SDS011;2107;52.306;10.484;2022-08-19T10:01:54;0.50;;;0.50;;
4186;SDS011;2107;52.306;10.484;2022-08-19T10:04:21;0.50;;;0.50;;
4186;SDS011;2107;52.306;10.484;2022-08-19T10:07:08;1.30;;;1.30;;
4186;SDS011;2107;52.306;10.484;2022-08-19T10:09:35;0.80;;;0.80;;
4186;SDS011;2107;52.306;10.484;2022-08-19T10:12:02;1.10;;;1.10;;
4186;SDS011;2107;52.306;10.484;2022-08-19T10:14:30;0.97;;;0.97;;
4186;SDS011;2107;52.306;10.484;2022-08-19T10:16:59;0.70;;;0.70;;
4186;SDS011;2107;52.306;10.484;2022-08-19T10:19:27;0.80;;;0.80;;
4186;SDS011;2107;52.306;10.484;2022-08-19T10:22:02;0.80;;;0.80;;
4186;SDS011;2107;52.306;10.484;2022-08-19T10:24:29;0.77;;;0.77;;
4186;SDS011;2107;52.306;10.484;2022-08-19T10:26:57;0.90;;;0.90;;
4186;SDS011;2107;52.306;10.484;2022-08-19T10:29:24;0.90;;;0.90;;
4186;SDS011;2107;52.306;10.484;2022-08-19T10:31:53;0.60;;;0.60;;
4186;SDS011;2107;52.306;10.484;2022-08-19T10:34:22;0.70;;;0.70;;
4186;SDS011;2107;52.306;10.484;2022-08-19T10:36:49;0.70;;;0.70;;
4186;SDS011;2107;52.306;10.484;2022-08-19T10:39:16;0.60;;;0.60;;
4186;SDS011;2107;52.306;10.484;2022-08-19T10:41:43;0.80;;;0.80;;
4186;SDS011;2107;52.306;10.484;2022-08-19T10:44:11;0.60;;;0.60;;
4186;SDS011;2107;52.306;10.484;2022-08-19T10:46:41;0.77;;;0.77;;
4186;SDS011;2107;52.306;10.484;2022-08-19T10:49:12;0.80;;;0.80;;
4186;SDS011;2107;52.306;10.484;2022-08-19T10:51:41;0.60;;;0.60;;
4186;SDS011;2107;52.306;10.484;2022-08-19T10:54:26;1.10;;;1.10;;
4186;SDS011;2107;52.306;10.484;2022-08-19T10:57:07;0.70;;;0.70;;
4186;SDS011;2107;52.306;10.484;2022-08-19T10:59:34;1.10;;;1.10;;
4186;SDS011;2107;52.306;10.484;2022-08-19T11:02:02;1.10;;;1.10;;
4186;SDS011;2107;52.306;10.484;2022-08-19T11:04:32;0.70;;;0.70;;
4186;SDS011;2107;52.306;10.484;2022-08-19T11:07:00;0.83;;;0.83;;
4186;SDS011;2107;52.306;10.484;2022-08-19T11:09:28;1.23;;;1.23;;
4186;SDS011;2107;52.306;10.484;2022-08-19T11:11:55;0.70;;;0.70;;
4186;SDS011;2107;52.306;10.484;2022-08-19T11:14:23;0.60;;;0.60;;
4186;SDS011;2107;52.306;10.484;2022-08-19T11:16:50;0.90;;;0.90;;
4186;SDS011;2107;52.306;10.484;2022-08-19T11:19:20;0.80;;;0.80;;
4186;SDS011;2107;52.306;10.484;2022-08-19T11:21:50;1.00;;;1.00;;
4186;SDS011;2107;52.306;10.484;2022-08-19T11:24:21;1.00;;;1.00;;
4186;SDS011;2107;52.306;10.484;2022-08-19T11:26:50;0.90;;;0.90;;
4186;SDS011;2107;52.306;10.484;2022-08-19T11:29:21;0.90;;;0.90;;
4186;SDS011;2107;52.306;10.484;2022-08-19T11:31:51;0.80;;;0.80;;
4186;SDS011;2107;52.306;10.484;2022-08-19T11:34:19;0.60;;;0.60;;
4186;SDS011;2107;52.306;10.484;2022-08-19T11:36:48;0.57;;;0.57;;
4186;SDS011;2107;52.306;10.484;2022-08-19T11:39:17;0.50;;;0.50;;
4186;SDS011;2107;52.306;10.484;2022-08-19T11:41:47;0.70;;;0.70;;
4186;SDS011;2107;52.306;10.484;2022-08-19T11:44:14;0.70;;;0.70;;
4186;SDS011;2107;52.306;10.484;2022-08-19T11:46:42;0.80;;;0.80;;
4186;SDS011;2107;52.306;10.484;2022-08-19T11:49:12;0.70;;;0.70;;
4186;SDS011;2107;52.306;10.484;2022-08-19T11:51:40;0.60;;;0.60;;
4186;SDS011;2107;52.306;10.484;2022-08-19T11:54:08;0.90;;;0.90;;
4186;SDS011;2107;52.306;10.484;2022-08-19T11:56:36;0.70;;;0.70;;
4186;SDS011;2107;52.306;10.484;2022-08-19T11:59:05;0.60;;;0.60;;
4186;SDS011;2107;52.306;10.484;2022-08-19T12:01:35;0.70;;;0.70;;
4186;SDS011;2107;52.306;10.484;2022-08-19T12:04:05;0.63;;;0.63;;
4186;SDS011;2107;52.306;10.484;2022-08-19T12:06:33;0.87;;;0.87;;
4186;SDS011;2107;52.306;10.484;2022-08-19T12:09:05;0.83;;;0.83;;
4186;SDS011;2107;52.306;10.484;2022-08-19T12:11:33;0.80;;;0.80;;
4186;SDS011;2107;52.306;10.484;2022-08-19T12:14:02;0.90;;;0.90;;
4186;SDS011;2107;52.306;10.484;2022-08-19T12:16:30;0.80;;;0.80;;
4186;SDS011;2107;52.306;10.484;2022-08-19T12:18:58;0.70;;;0.70;;
4186;SDS011;2107;52.306;10.484;2022-08-19T12:21:29;0.70;;;0.70;;
4186;SDS011;2107;52.306;10.484;2022-08-19T12:23:59;0.60;;;0.60;;
4186;SDS011;2107;52.306;10.484;2022-08-19T12:26:28;1.00;;;1.00;;
4186;SDS011;2107;52.306;10.484;2022-08-19T12:28:56;0.80;;;0.80;;
4186;SDS011;2107;52.306;10.484;2022-08-19T12:31:25;0.70;;;0.70;;
4186;SDS011;2107;52.306;10.484;2022-08-19T12:33:54;0.80;;;0.80;;
4186;SDS011;2107;52.306;10.484;2022-08-19T12:36:21;0.60;;;0.60;;
4186;SDS011;2107;52.306;10.484;2022-08-19T12:38:50;0.60;;;0.60;;
4186;SDS011;2107;52.306;10.484;2022-08-19T12:41:17;0.70;;;0.70;;
4186;SDS011;2107;52.306;10.484;2022-08-19T12:43:47;0.63;;;0.63;;
4186;SDS011;2107;52.306;10.484;2022-08-19T12:46:14;0.70;;;0.70;;
4186;SDS011;2107;52.306;10.484;2022-08-19T12:48:41;0.60;;;0.60;;
4186;SDS011;2107;52.306;10.484;2022-08-19T12:51:13;0.70;;;0.70;;
4186;SDS011;2107;52.306;10.484;2022-08-19T12:53:41;0.70;;;0.70;;
4186;SDS011;2107;52.306;10.484;2022-08-19T12:56:10;0.70;;;0.70;;
4186;SDS011;2107;52.306;10.484;2022-08-19T12:58:39;0.60;;;0.60;;
4186;SDS011;2107;52.306;10.484;2022-08-19T13:01:08;0.70;;;0.70;;
4186;SDS011;2107;52.306;10.484;2022-08-19T13:03:36;0.60;;;0.60;;
4186;SDS011;2107;52.306;10.484;2022-08-19T13:06:03;0.50;;;0.50;;
4186;SDS011;2107;52.306;10.484;2022-08-19T13:08:32;0.50;;;0.50;;
4186;SDS011;2107;52.306;10.484;2022-08-19T13:11:06;0.60;;;0.60;;
4186;SDS011;2107;52.306;10.484;2022-08-19T13:13:36;0.50;;;0.50;;
4186;SDS011;2107;52.306;10.484;2022-08-19T13:16:06;0.50;;;0.50;;
4186;SDS011;2107;52.306;10.484;2022-08-19T13:18:33;0.60;;;0.60;;
4186;SDS011;2107;52.306;10.484;2022-08-19T13:21:01;0.60;;;0.60;;
4186;SDS011;2107;52.306;10.484;2022-08-19T13:23:30;0.70;;;0.70;;
4186;SDS011;2107;52.306;10.484;2022-08-19T13:25:59;0.70;;;0.70;;
4186;SDS011;2107;52.306;10.484;2022-08-19T13:28:28;0.50;;;0.50;;
4186;SDS011;2107;52.306;10.484;2022-08-19T13:31:15;0.60;;;0.60;;
4186;SDS011;2107;52.306;10.484;2022-08-19T13:34:01;0.40;;;0.40;;
4186;SDS011;2107;52.306;10.484;2022-08-19T13:36:28;0.40;;;0.40;;
4186;SDS011;2107;52.306;10.484;2022-08-19T13:38:57;0.40;;;0.40;;
4186;SDS011;2107;52.306;10.484;2022-08-19T13:41:24;0.43;;;0.43;;
4186;SDS011;2107;52.306;10.484;2022-08-19T13:43:52;0.60;;;0.60;;
4186;SDS011;2107;52.306;10.484;2022-08-19T13:46:19;0.70;;;0.70;;
4186;SDS011;2107;52.306;10.484;2022-08-19T13:48:46;0.60;;;0.60;;
4186;SDS011;2107;52.306;10.484;2022-08-19T13:51:15;0.93;;;0.93;;
4186;SDS011;2107;52.306;10.484;2022-08-19T13:53:42;0.82;;;0.82;;
4186;SDS011;2107;52.306;10.484;2022-08-19T13:56:14;0.50;;;0.50;;
4186;SDS011;2107;52.306;10.484;2022-08-19T13:58:44;0.80;;;0.80;;
4186;SDS011;2107;52.306;10.484;2022-08-19T14:01:18;1.00;;;1.00;;
4186;SDS011;2107;52.306;10.484;2022-08-19T14:03:45;1.00;;;1.00;;
4186;SDS011;2107;52.306;10.484;2022-08-19T14:06:12;0.82;;;0.82;;
4186;SDS011;2107;52.306;10.484;2022-08-19T14:08:39;0.70;;;0.70;;
4186;SDS011;2107;52.306;10.484;2022-08-19T14:11:07;0.80;;;0.80;;
4186;SDS011;2107;52.306;10.484;2022-08-19T14:13:36;0.60;;;0.60;;
4186;SDS011;2107;52.306;10.484;2022-08-19T14:16:09;1.10;;;1.10;;
4186;SDS011;2107;52.306;10.484;2022-08-19T14:18:38;0.80;;;0.80;;
4186;SDS011;2107;52.306;10.484;2022-08-19T14:21:05;0.50;;;0.50;;
4186;SDS011;2107;52.306;10.484;2022-08-19T14:23:33;0.90;;;0.90;;
4186;SDS011;2107;52.306;10.484;2022-08-19T14:26:04;0.70;;;0.70;;
4186;SDS011;2107;52.306;10.484;2022-08-19T14:28:33;0.90;;;0.90;;
4186;SDS011;2107;52.306;10.484;2022-08-19T14:31:01;0.60;;;0.60;;
4186;SDS011;2107;52.306;10.484;2022-08-19T14:33:28;0.80;;;0.80;;
4186;SDS011;2107;52.306;10.484;2022-08-19T14:35:57;0.88;;;0.88;;
4186;SDS011;2107;52.306;10.484;2022-08-19T14:38:25;0.80;;;0.80;;
4186;SDS011;2107;52.306;10.484;2022-08-19T14:41:04;0.82;;;0.82;;
4186;SDS011;2107;52.306;10.484;2022-08-19T14:43:32;0.70;;;0.70;;
4186;SDS011;2107;52.306;10.484;2022-08-19T14:45:59;0.80;;;0.80;;
4186;SDS011;2107;52.306;10.484;2022-08-19T14:48:28;0.80;;;0.80;;
4186;SDS011;2107;52.306;10.484;2022-08-19T14:50:55;0.98;;;0.98;;
4186;SDS011;2107;52.306;10.484;2022-08-19T14:53:23;1.00;;;1.00;;
4186;SDS011;2107;52.306;10.484;2022-08-19T14:55:50;0.80;;;0.80;;
4186;SDS011;2107;52.306;10.484;2022-08-19T14:58:17;1.10;;;1.10;;
4186;SDS011;2107;52.306;10.484;2022-08-19T15:00:44;1.20;;;1.20;;
4186;SDS011;2107;52.306;10.484;2022-08-19T15:03:13;0.70;;;0.70;;
4186;SDS011;2107;52.306;10.484;2022-08-19T15:05:40;0.90;;;0.90;;
4186;SDS011;2107;52.306;10.484;2022-08-19T15:08:07;1.00;;;1.00;;
4186;SDS011;2107;52.306;10.484;2022-08-19T15:10:34;1.00;;;1.00;;